sensor_id;sensor_type;location;lat;lon;timestamp;P1;durP1;ratioP1;P2;durP2;ratioP2
84146;SDS011;74267;50.434;7.398;2024-02-21T00:02:18;27.15;;;11.98;;
84146;SDS011;74267;50.434;7.398;2024-02-21T00:04:43;20.67;;;9.15;;
84146;SDS011;74267;50.434;7.398;2024-02-21T00:07:09;17.75;;;9.40;;
84146;SDS011;74267;50.434;7.398;2024-02-21T00:09:34;21.27;;;9.35;;
84146;SDS011;74267;50.434;7.398;2024-02-21T00:11:59;20.05;;;11.63;;
84146;SDS011;74267;50.434;7.398;2024-02-21T00:14:26;18.77;;;8.43;;
84146;SDS011;74267;50.434;7.398;2024-02-21T00:16:51;15.35;;;7.15;;
84146;SDS011;74267;50.434;7.398;2024-02-21T00:19:16;17.35;;;7.85;;
84146;SDS011;74267;50.434;7.398;2024-02-21T00:21:42;12.82;;;7.07;;
84146;SDS011;74267;50.434;7.398;2024-02-21T00:24:07;14.20;;;7.45;;
84146;SDS011;74267;50.434;7.398;2024-02-21T00:26:32;11.30;;;5.80;;
84146;SDS011;74267;50.434;7.398;2024-02-21T00:28:57;14.60;;;7.20;;
84146;SDS011;74267;50.434;7.398;2024-02-21T00:31:23;13.00;;;7.07;;
84146;SDS011;74267;50.434;7.398;2024-02-21T00:33:48;14.85;;;7.97;;
84146;SDS011;74267;50.434;7.398;2024-02-21T00:36:14;15.02;;;7.25;;
84146;SDS011;74267;50.434;7.398;2024-02-21T00:38:40;12.70;;;6.55;;
84146;SDS011;74267;50.434;7.398;2024-02-21T00:41:05;13.75;;;6.07;;
84146;SDS011;74267;50.434;7.398;2024-02-21T00:43:31;13.30;;;6.07;;
84146;SDS011;74267;50.434;7.398;2024-02-21T00:45:56;12.68;;;7.18;;
84146;SDS011;74267;50.434;7.398;2024-02-21T00:48:21;12.13;;;6.95;;
84146;SDS011;74267;50.434;7.398;2024-02-21T00:50:47;13.48;;;8.30;;
84146;SDS011;74267;50.434;7.398;2024-02-21T00:53:13;16.27;;;10.93;;
84146;SDS011;74267;50.434;7.398;2024-02-21T00:55:38;13.90;;;6.38;;
84146;SDS011;74267;50.434;7.398;2024-02-21T00:58:03;11.10;;;6.03;;
84146;SDS011;74267;50.434;7.398;2024-02-21T01:00:29;10.93;;;6.50;;
84146;SDS011;74267;50.434;7.398;2024-02-21T01:02:54;13.18;;;6.15;;
84146;SDS011;74267;50.434;7.398;2024-02-21T01:05:19;12.30;;;6.60;;
84146;SDS011;74267;50.434;7.398;2024-02-21T01:07:45;11.98;;;5.65;;
84146;SDS011;74267;50.434;7.398;2024-02-21T01:10:10;14.10;;;5.97;;
84146;SDS011;74267;50.434;7.398;2024-02-21T01:12:35;15.40;;;6.55;;
84146;SDS011;74267;50.434;7.398;2024-02-21T01:15:01;11.23;;;6.93;;
84146;SDS011;74267;50.434;7.398;2024-02-21T01:17:27;13.68;;;6.40;;
84146;SDS011;74267;50.434;7.398;2024-02-21T01:19:52;14.10;;;7.15;;
84146;SDS011;74267;50.434;7.398;2024-02-21T01:22:17;8.00;;;5.40;;
84146;SDS011;74267;50.434;7.398;2024-02-21T01:24:43;11.40;;;5.78;;
84146;SDS011;74267;50.434;7.398;2024-02-21T01:27:08;13.60;;;9.60;;
84146;SDS011;74267;50.434;7.398;2024-02-21T01:29:34;10.20;;;5.25;;
84146;SDS011;74267;50.434;7.398;2024-02-21T01:31:59;12.82;;;5.60;;
84146;SDS011;74267;50.434;7.398;2024-02-21T01:34:24;11.82;;;6.57;;
84146;SDS011;74267;50.434;7.398;2024-02-21T01:36:50;12.25;;;6.18;;
84146;SDS011;74267;50.434;7.398;2024-02-21T01:39:15;11.35;;;6.45;;
84146;SDS011;74267;50.434;7.398;2024-02-21T01:41:40;12.43;;;5.88;;
84146;SDS011;74267;50.434;7.398;2024-02-21T01:44:06;12.98;;;7.20;;
84146;SDS011;74267;50.434;7.398;2024-02-21T01:46:31;10.75;;;6.40;;
84146;SDS011;74267;50.434;7.398;2024-02-21T01:48:57;12.80;;;5.75;;
84146;SDS011;74267;50.434;7.398;2024-02-21T01:51:22;9.90;;;5.53;;
84146;SDS011;74267;50.434;7.398;2024-02-21T01:53:49;9.98;;;6.38;;
84146;SDS011;74267;50.434;7.398;2024-02-21T01:56:15;12.95;;;6.90;;
84146;SDS011;74267;50.434;7.398;2024-02-21T01:58:41;12.20;;;5.82;;
84146;SDS011;74267;50.434;7.398;2024-02-21T02:01:08;9.95;;;5.50;;
84146;SDS011;74267;50.434;7.398;2024-02-21T02:03:34;11.90;;;5.43;;
84146;SDS011;74267;50.434;7.398;2024-02-21T02:05:59;10.88;;;6.85;;
84146;SDS011;74267;50.434;7.398;2024-02-21T02:08:25;12.25;;;6.03;;
84146;SDS011;74267;50.434;7.398;2024-02-21T02:10:51;10.80;;;5.50;;
84146;SDS011;74267;50.434;7.398;2024-02-21T02:13:17;9.57;;;5.05;;
84146;SDS011;74267;50.434;7.398;2024-02-21T02:15:46;12.52;;;5.82;;
84146;SDS011;74267;50.434;7.398;2024-02-21T02:18:12;10.85;;;6.43;;
84146;SDS011;74267;50.434;7.398;2024-02-21T02:20:38;11.30;;;4.88;;
84146;SDS011;74267;50.434;7.398;2024-02-21T02:23:11;11.52;;;5.18;;
84146;SDS011;74267;50.434;7.398;2024-02-21T02:26:03;13.95;;;4.72;;
84146;SDS011;74267;50.434;7.398;2024-02-21T02:28:28;12.85;;;5.30;;
84146;SDS011;74267;50.434;7.398;2024-02-21T02:30:53;12.07;;;5.78;;
84146;SDS011;74267;50.434;7.398;2024-02-21T02:33:19;8.45;;;5.15;;
84146;SDS011;74267;50.434;7.398;2024-02-21T02:35:45;7.43;;;4.30;;
84146;SDS011;74267;50.434;7.398;2024-02-21T02:38:10;10.38;;;5.00;;
84146;SDS011;74267;50.434;7.398;2024-02-21T02:40:39;11.13;;;4.88;;
84146;SDS011;74267;50.434;7.398;2024-02-21T02:43:08;12.00;;;5.43;;
84146;SDS011;74267;50.434;7.398;2024-02-21T02:45:33;9.80;;;4.88;;
84146;SDS011;74267;50.434;7.398;2024-02-21T02:47:58;11.85;;;5.55;;
84146;SDS011;74267;50.434;7.398;2024-02-21T02:50:25;10.43;;;7.28;;
84146;SDS011;74267;50.434;7.398;2024-02-21T02:52:51;10.65;;;4.88;;
84146;SDS011;74267;50.434;7.398;2024-02-21T02:55:17;10.30;;;5.25;;
84146;SDS011;74267;50.434;7.398;2024-02-21T02:57:43;10.90;;;5.25;;
84146;SDS011;74267;50.434;7.398;2024-02-21T03:00:08;13.05;;;4.50;;
84146;SDS011;74267;50.434;7.398;2024-02-21T03:02:36;11.15;;;5.03;;
84146;SDS011;74267;50.434;7.398;2024-02-21T03:05:03;14.30;;;5.50;;
84146;SDS011;74267;50.434;7.398;2024-02-21T03:07:38;9.35;;;4.53;;
84146;SDS011;74267;50.434;7.398;2024-02-21T03:10:04;14.60;;;5.45;;
84146;SDS011;74267;50.434;7.398;2024-02-21T03:12:29;11.68;;;8.73;;
84146;SDS011;74267;50.434;7.398;2024-02-21T03:14:55;10.18;;;5.07;;
84146;SDS011;74267;50.434;7.398;2024-02-21T03:17:20;10.65;;;4.85;;
84146;SDS011;74267;50.434;7.398;2024-02-21T03:19:46;10.80;;;4.45;;
84146;SDS011;74267;50.434;7.398;2024-02-21T03:22:12;13.35;;;5.28;;
84146;SDS011;74267;50.434;7.398;2024-02-21T03:24:37;11.18;;;5.38;;
84146;SDS011;74267;50.434;7.398;2024-02-21T03:27:02;11.70;;;4.90;;
84146;SDS011;74267;50.434;7.398;2024-02-21T03:29:28;10.60;;;5.43;;
84146;SDS011;74267;50.434;7.398;2024-02-21T03:31:53;13.55;;;4.90;;
84146;SDS011;74267;50.434;7.398;2024-02-21T03:34:19;8.80;;;5.07;;
84146;SDS011;74267;50.434;7.398;2024-02-21T03:36:45;10.60;;;6.30;;
84146;SDS011;74267;50.434;7.398;2024-02-21T03:39:10;12.35;;;8.13;;
84146;SDS011;74267;50.434;7.398;2024-02-21T03:41:35;14.70;;;5.78;;
84146;SDS011;74267;50.434;7.398;2024-02-21T03:44:01;13.80;;;5.63;;
84146;SDS011;74267;50.434;7.398;2024-02-21T03:46:27;11.15;;;4.85;;
84146;SDS011;74267;50.434;7.398;2024-02-21T03:48:52;9.05;;;6.15;;
84146;SDS011;74267;50.434;7.398;2024-02-21T03:51:18;12.90;;;5.28;;
84146;SDS011;74267;50.434;7.398;2024-02-21T03:53:43;9.45;;;5.25;;
84146;SDS011;74267;50.434;7.398;2024-02-21T03:56:09;11.25;;;5.72;;
84146;SDS011;74267;50.434;7.398;2024-02-21T03:58:34;11.90;;;4.32;;
84146;SDS011;74267;50.434;7.398;2024-02-21T04:01:00;13.23;;;5.60;;
84146;SDS011;74267;50.434;7.398;2024-02-21T04:03:26;12.77;;;4.93;;
84146;SDS011;74267;50.434;7.398;2024-02-21T04:05:51;9.38;;;5.18;;
84146;SDS011;74267;50.434;7.398;2024-02-21T04:08:17;12.32;;;6.30;;
84146;SDS011;74267;50.434;7.398;2024-02-21T04:10:42;11.95;;;4.60;;
84146;SDS011;74267;50.434;7.398;2024-02-21T04:13:08;10.27;;;5.13;;
84146;SDS011;74267;50.434;7.398;2024-02-21T04:15:33;11.63;;;5.63;;
84146;SDS011;74267;50.434;7.398;2024-02-21T04:17:58;12.82;;;5.35;;
84146;SDS011;74267;50.434;7.398;2024-02-21T04:20:24;13.95;;;6.15;;
84146;SDS011;74267;50.434;7.398;2024-02-21T04:22:49;10.63;;;5.20;;
84146;SDS011;74267;50.434;7.398;2024-02-21T04:25:14;10.70;;;4.80;;
84146;SDS011;74267;50.434;7.398;2024-02-21T04:27:40;10.10;;;4.55;;
84146;SDS011;74267;50.434;7.398;2024-02-21T04:30:05;12.82;;;5.97;;
84146;SDS011;74267;50.434;7.398;2024-02-21T04:32:31;9.07;;;6.28;;
84146;SDS011;74267;50.434;7.398;2024-02-21T04:34:57;12.85;;;5.68;;
84146;SDS011;74267;50.434;7.398;2024-02-21T04:37:22;10.45;;;4.93;;
84146;SDS011;74267;50.434;7.398;2024-02-21T04:39:48;12.13;;;5.53;;
84146;SDS011;74267;50.434;7.398;2024-02-21T04:42:14;10.73;;;5.55;;
84146;SDS011;74267;50.434;7.398;2024-02-21T04:44:39;13.55;;;6.05;;
84146;SDS011;74267;50.434;7.398;2024-02-21T04:47:05;12.93;;;5.68;;
84146;SDS011;74267;50.434;7.398;2024-02-21T04:49:30;11.30;;;4.78;;
84146;SDS011;74267;50.434;7.398;2024-02-21T04:51:56;8.95;;;4.35;;
84146;SDS011;74267;50.434;7.398;2024-02-21T04:54:21;7.68;;;4.43;;
84146;SDS011;74267;50.434;7.398;2024-02-21T04:56:46;8.13;;;4.13;;
84146;SDS011;74267;50.434;7.398;2024-02-21T04:59:11;8.30;;;3.90;;
84146;SDS011;74267;50.434;7.398;2024-02-21T05:01:37;7.90;;;4.05;;
84146;SDS011;74267;50.434;7.398;2024-02-21T05:04:02;9.93;;;5.07;;
84146;SDS011;74267;50.434;7.398;2024-02-21T05:06:28;9.02;;;4.03;;
84146;SDS011;74267;50.434;7.398;2024-02-21T05:08:53;10.32;;;4.53;;
84146;SDS011;74267;50.434;7.398;2024-02-21T05:11:20;11.32;;;3.85;;
84146;SDS011;74267;50.434;7.398;2024-02-21T05:13:49;7.70;;;3.88;;
84146;SDS011;74267;50.434;7.398;2024-02-21T05:16:15;7.50;;;4.22;;
84146;SDS011;74267;50.434;7.398;2024-02-21T05:18:40;9.05;;;4.13;;
84146;SDS011;74267;50.434;7.398;2024-02-21T05:21:07;8.02;;;4.85;;
84146;SDS011;74267;50.434;7.398;2024-02-21T05:23:33;9.35;;;5.53;;
84146;SDS011;74267;50.434;7.398;2024-02-21T05:25:58;11.60;;;4.45;;
84146;SDS011;74267;50.434;7.398;2024-02-21T05:28:23;13.63;;;5.90;;
84146;SDS011;74267;50.434;7.398;2024-02-21T05:30:49;13.40;;;5.15;;
84146;SDS011;74267;50.434;7.398;2024-02-21T05:33:14;10.18;;;4.68;;
84146;SDS011;74267;50.434;7.398;2024-02-21T05:35:46;12.82;;;7.65;;
84146;SDS011;74267;50.434;7.398;2024-02-21T05:38:11;8.98;;;4.70;;
84146;SDS011;74267;50.434;7.398;2024-02-21T05:40:37;9.90;;;4.28;;
84146;SDS011;74267;50.434;7.398;2024-02-21T05:43:02;9.07;;;4.90;;
84146;SDS011;74267;50.434;7.398;2024-02-21T05:45:27;7.18;;;4.35;;
84146;SDS011;74267;50.434;7.398;2024-02-21T05:47:53;8.70;;;5.45;;
84146;SDS011;74267;50.434;7.398;2024-02-21T05:50:18;9.60;;;4.75;;
84146;SDS011;74267;50.434;7.398;2024-02-21T05:52:44;9.70;;;4.40;;
84146;SDS011;74267;50.434;7.398;2024-02-21T05:55:09;11.10;;;4.50;;
84146;SDS011;74267;50.434;7.398;2024-02-21T05:57:35;12.35;;;5.50;;
84146;SDS011;74267;50.434;7.398;2024-02-21T06:00:00;9.32;;;4.97;;
84146;SDS011;74267;50.434;7.398;2024-02-21T06:02:31;10.77;;;4.78;;
84146;SDS011;74267;50.434;7.398;2024-02-21T06:04:56;9.18;;;4.57;;
84146;SDS011;74267;50.434;7.398;2024-02-21T06:07:21;10.10;;;5.13;;
84146;SDS011;74267;50.434;7.398;2024-02-21T06:09:47;9.05;;;4.43;;
84146;SDS011;74267;50.434;7.398;2024-02-21T06:12:12;7.53;;;4.72;;
84146;SDS011;74267;50.434;7.398;2024-02-21T06:14:37;12.90;;;5.72;;
84146;SDS011;74267;50.434;7.398;2024-02-21T06:17:03;11.18;;;8.65;;
84146;SDS011;74267;50.434;7.398;2024-02-21T06:19:28;15.43;;;10.57;;
84146;SDS011;74267;50.434;7.398;2024-02-21T06:21:53;8.90;;;5.03;;
84146;SDS011;74267;50.434;7.398;2024-02-21T06:24:19;8.52;;;4.75;;
84146;SDS011;74267;50.434;7.398;2024-02-21T06:26:44;10.43;;;5.18;;
84146;SDS011;74267;50.434;7.398;2024-02-21T06:29:10;12.45;;;7.43;;
84146;SDS011;74267;50.434;7.398;2024-02-21T06:31:36;10.20;;;5.22;;
84146;SDS011;74267;50.434;7.398;2024-02-21T06:34:01;9.60;;;5.95;;
84146;SDS011;74267;50.434;7.398;2024-02-21T06:36:27;14.30;;;4.55;;
84146;SDS011;74267;50.434;7.398;2024-02-21T06:38:52;10.25;;;4.40;;
84146;SDS011;74267;50.434;7.398;2024-02-21T06:41:18;6.53;;;4.30;;
84146;SDS011;74267;50.434;7.398;2024-02-21T06:43:44;8.73;;;5.28;;
84146;SDS011;74267;50.434;7.398;2024-02-21T06:46:10;12.52;;;5.85;;
84146;SDS011;74267;50.434;7.398;2024-02-21T06:48:36;13.02;;;6.25;;
84146;SDS011;74267;50.434;7.398;2024-02-21T06:51:01;9.55;;;5.65;;
84146;SDS011;74267;50.434;7.398;2024-02-21T06:53:28;12.35;;;5.85;;
84146;SDS011;74267;50.434;7.398;2024-02-21T06:55:53;10.95;;;5.53;;
84146;SDS011;74267;50.434;7.398;2024-02-21T06:58:19;10.20;;;5.30;;
84146;SDS011;74267;50.434;7.398;2024-02-21T07:00:44;7.85;;;5.18;;
84146;SDS011;74267;50.434;7.398;2024-02-21T07:03:09;16.88;;;9.57;;
84146;SDS011;74267;50.434;7.398;2024-02-21T07:05:35;11.10;;;5.00;;
84146;SDS011;74267;50.434;7.398;2024-02-21T07:08:00;9.50;;;4.53;;
84146;SDS011;74267;50.434;7.398;2024-02-21T07:10:25;11.38;;;5.10;;
84146;SDS011;74267;50.434;7.398;2024-02-21T07:12:52;10.95;;;4.97;;
84146;SDS011;74267;50.434;7.398;2024-02-21T07:15:18;8.75;;;5.38;;
84146;SDS011;74267;50.434;7.398;2024-02-21T07:17:43;11.27;;;5.47;;
84146;SDS011;74267;50.434;7.398;2024-02-21T07:20:09;13.88;;;7.88;;
84146;SDS011;74267;50.434;7.398;2024-02-21T07:22:34;7.90;;;5.43;;
84146;SDS011;74267;50.434;7.398;2024-02-21T07:25:00;11.90;;;4.57;;
84146;SDS011;74267;50.434;7.398;2024-02-21T07:27:25;12.43;;;5.63;;
84146;SDS011;74267;50.434;7.398;2024-02-21T07:29:53;10.18;;;4.90;;
84146;SDS011;74267;50.434;7.398;2024-02-21T07:32:19;15.30;;;5.53;;
84146;SDS011;74267;50.434;7.398;2024-02-21T07:34:44;10.73;;;6.38;;
84146;SDS011;74267;50.434;7.398;2024-02-21T07:37:09;10.20;;;5.45;;
84146;SDS011;74267;50.434;7.398;2024-02-21T07:39:37;11.48;;;5.10;;
84146;SDS011;74267;50.434;7.398;2024-02-21T07:42:03;11.82;;;5.63;;
84146;SDS011;74267;50.434;7.398;2024-02-21T07:44:28;15.32;;;5.55;;
84146;SDS011;74267;50.434;7.398;2024-02-21T07:46:54;11.35;;;8.23;;
84146;SDS011;74267;50.434;7.398;2024-02-21T07:49:19;10.27;;;5.43;;
84146;SDS011;74267;50.434;7.398;2024-02-21T07:51:44;9.43;;;6.05;;
84146;SDS011;74267;50.434;7.398;2024-02-21T07:54:09;8.80;;;5.20;;
84146;SDS011;74267;50.434;7.398;2024-02-21T07:56:35;11.65;;;6.10;;
84146;SDS011;74267;50.434;7.398;2024-02-21T07:59:00;11.38;;;6.60;;
84146;SDS011;74267;50.434;7.398;2024-02-21T08:01:25;10.00;;;5.72;;
84146;SDS011;74267;50.434;7.398;2024-02-21T08:03:51;12.60;;;5.65;;
84146;SDS011;74267;50.434;7.398;2024-02-21T08:06:16;11.25;;;5.00;;
84146;SDS011;74267;50.434;7.398;2024-02-21T08:08:41;8.20;;;5.57;;
84146;SDS011;74267;50.434;7.398;2024-02-21T08:11:07;9.48;;;6.25;;
84146;SDS011;74267;50.434;7.398;2024-02-21T08:13:32;13.52;;;8.55;;
84146;SDS011;74267;50.434;7.398;2024-02-21T08:15:57;10.50;;;4.95;;
84146;SDS011;74267;50.434;7.398;2024-02-21T08:18:23;13.50;;;5.43;;
84146;SDS011;74267;50.434;7.398;2024-02-21T08:20:48;12.45;;;7.65;;
84146;SDS011;74267;50.434;7.398;2024-02-21T08:23:17;10.93;;;6.20;;
84146;SDS011;74267;50.434;7.398;2024-02-21T08:25:43;10.27;;;5.80;;
84146;SDS011;74267;50.434;7.398;2024-02-21T08:28:09;19.13;;;5.00;;
84146;SDS011;74267;50.434;7.398;2024-02-21T08:30:34;12.68;;;4.78;;
84146;SDS011;74267;50.434;7.398;2024-02-21T08:32:59;12.55;;;5.18;;
84146;SDS011;74267;50.434;7.398;2024-02-21T08:35:25;12.85;;;6.70;;
84146;SDS011;74267;50.434;7.398;2024-02-21T08:37:50;9.57;;;4.82;;
84146;SDS011;74267;50.434;7.398;2024-02-21T08:40:15;12.20;;;5.50;;
84146;SDS011;74267;50.434;7.398;2024-02-21T08:42:44;11.23;;;5.50;;
84146;SDS011;74267;50.434;7.398;2024-02-21T08:45:09;10.43;;;5.43;;
84146;SDS011;74267;50.434;7.398;2024-02-21T08:47:35;9.27;;;5.00;;
84146;SDS011;74267;50.434;7.398;2024-02-21T08:50:01;14.23;;;6.05;;
84146;SDS011;74267;50.434;7.398;2024-02-21T08:52:27;13.15;;;5.72;;
84146;SDS011;74267;50.434;7.398;2024-02-21T08:54:52;15.23;;;5.40;;
84146;SDS011;74267;50.434;7.398;2024-02-21T08:57:18;12.65;;;5.47;;
84146;SDS011;74267;50.434;7.398;2024-02-21T08:59:44;8.43;;;4.60;;
84146;SDS011;74267;50.434;7.398;2024-02-21T09:02:10;10.98;;;6.88;;
84146;SDS011;74267;50.434;7.398;2024-02-21T09:04:35;10.38;;;5.13;;
84146;SDS011;74267;50.434;7.398;2024-02-21T09:07:00;8.93;;;5.70;;
84146;SDS011;74267;50.434;7.398;2024-02-21T09:09:26;11.23;;;5.63;;
84146;SDS011;74267;50.434;7.398;2024-02-21T09:11:53;10.73;;;4.47;;
84146;SDS011;74267;50.434;7.398;2024-02-21T09:14:18;9.02;;;4.97;;
84146;SDS011;74267;50.434;7.398;2024-02-21T09:16:44;8.85;;;7.63;;
84146;SDS011;74267;50.434;7.398;2024-02-21T09:19:09;9.52;;;4.75;;
84146;SDS011;74267;50.434;7.398;2024-02-21T09:21:36;7.28;;;4.45;;
84146;SDS011;74267;50.434;7.398;2024-02-21T09:24:02;11.23;;;5.20;;
84146;SDS011;74267;50.434;7.398;2024-02-21T09:26:27;9.98;;;4.50;;
84146;SDS011;74267;50.434;7.398;2024-02-21T09:28:53;9.88;;;5.70;;
84146;SDS011;74267;50.434;7.398;2024-02-21T09:31:18;10.15;;;3.65;;
84146;SDS011;74267;50.434;7.398;2024-02-21T09:33:44;9.82;;;5.40;;
84146;SDS011;74267;50.434;7.398;2024-02-21T09:36:10;10.50;;;4.32;;
84146;SDS011;74267;50.434;7.398;2024-02-21T09:38:35;7.88;;;5.15;;
84146;SDS011;74267;50.434;7.398;2024-02-21T09:43:42;13.40;;;4.85;;
84146;SDS011;74267;50.434;7.398;2024-02-21T09:46:12;10.90;;;4.35;;
84146;SDS011;74267;50.434;7.398;2024-02-21T09:51:15;12.43;;;4.95;;
84146;SDS011;74267;50.434;7.398;2024-02-21T09:53:42;10.65;;;5.05;;
84146;SDS011;74267;50.434;7.398;2024-02-21T09:56:08;11.30;;;4.82;;
84146;SDS011;74267;50.434;7.398;2024-02-21T09:58:34;11.90;;;5.25;;
84146;SDS011;74267;50.434;7.398;2024-02-21T10:00:59;8.00;;;4.45;;
84146;SDS011;74267;50.434;7.398;2024-02-21T10:03:25;6.97;;;4.68;;
84146;SDS011;74267;50.434;7.398;2024-02-21T10:05:50;11.85;;;6.90;;
84146;SDS011;74267;50.434;7.398;2024-02-21T10:08:16;7.75;;;4.40;;
84146;SDS011;74267;50.434;7.398;2024-02-21T10:10:42;12.65;;;5.03;;
84146;SDS011;74267;50.434;7.398;2024-02-21T10:13:09;8.20;;;3.70;;
84146;SDS011;74267;50.434;7.398;2024-02-21T10:15:35;13.75;;;7.07;;
84146;SDS011;74267;50.434;7.398;2024-02-21T10:18:00;8.35;;;4.97;;
84146;SDS011;74267;50.434;7.398;2024-02-21T10:20:28;9.23;;;4.78;;
84146;SDS011;74267;50.434;7.398;2024-02-21T10:23:03;8.98;;;3.70;;
84146;SDS011;74267;50.434;7.398;2024-02-21T10:25:33;6.93;;;3.97;;
84146;SDS011;74267;50.434;7.398;2024-02-21T10:28:00;7.40;;;4.60;;
84146;SDS011;74267;50.434;7.398;2024-02-21T10:30:26;7.35;;;3.88;;
84146;SDS011;74267;50.434;7.398;2024-02-21T10:32:52;7.82;;;4.32;;
84146;SDS011;74267;50.434;7.398;2024-02-21T10:35:31;7.28;;;3.95;;
84146;SDS011;74267;50.434;7.398;2024-02-21T10:37:58;7.93;;;4.60;;
84146;SDS011;74267;50.434;7.398;2024-02-21T10:40:25;9.75;;;4.10;;
84146;SDS011;74267;50.434;7.398;2024-02-21T10:42:52;13.95;;;4.97;;
84146;SDS011;74267;50.434;7.398;2024-02-21T10:45:31;9.18;;;4.25;;
84146;SDS011;74267;50.434;7.398;2024-02-21T10:48:13;10.30;;;5.55;;
84146;SDS011;74267;50.434;7.398;2024-02-21T10:56:30;7.93;;;5.20;;
84146;SDS011;74267;50.434;7.398;2024-02-21T10:59:00;8.57;;;6.95;;
84146;SDS011;74267;50.434;7.398;2024-02-21T11:01:26;8.20;;;4.03;;
84146;SDS011;74267;50.434;7.398;2024-02-21T11:03:54;9.80;;;4.25;;
84146;SDS011;74267;50.434;7.398;2024-02-21T11:06:22;9.07;;;3.85;;
84146;SDS011;74267;50.434;7.398;2024-02-21T11:08:58;10.35;;;4.85;;
84146;SDS011;74267;50.434;7.398;2024-02-21T11:11:28;8.00;;;3.92;;
84146;SDS011;74267;50.434;7.398;2024-02-21T11:14:03;6.63;;;3.63;;
84146;SDS011;74267;50.434;7.398;2024-02-21T11:16:36;8.85;;;4.32;;
84146;SDS011;74267;50.434;7.398;2024-02-21T11:21:47;9.30;;;3.67;;
84146;SDS011;74267;50.434;7.398;2024-02-21T11:24:13;8.00;;;3.55;;
84146;SDS011;74267;50.434;7.398;2024-02-21T11:26:39;11.15;;;3.83;;
84146;SDS011;74267;50.434;7.398;2024-02-21T11:29:07;9.30;;;4.22;;
84146;SDS011;74267;50.434;7.398;2024-02-21T11:31:41;7.05;;;3.47;;
84146;SDS011;74267;50.434;7.398;2024-02-21T11:34:09;6.80;;;3.55;;
84146;SDS011;74267;50.434;7.398;2024-02-21T11:36:47;7.00;;;3.47;;
84146;SDS011;74267;50.434;7.398;2024-02-21T11:39:17;10.63;;;3.90;;
84146;SDS011;74267;50.434;7.398;2024-02-21T11:41:47;8.15;;;3.40;;
84146;SDS011;74267;50.434;7.398;2024-02-21T11:44:13;8.52;;;4.20;;
84146;SDS011;74267;50.434;7.398;2024-02-21T11:46:38;8.75;;;7.03;;
84146;SDS011;74267;50.434;7.398;2024-02-21T11:49:04;10.93;;;3.58;;
84146;SDS011;74267;50.434;7.398;2024-02-21T11:51:30;7.10;;;5.30;;
84146;SDS011;74267;50.434;7.398;2024-02-21T11:53:55;10.02;;;4.00;;
84146;SDS011;74267;50.434;7.398;2024-02-21T11:56:20;8.40;;;3.80;;
84146;SDS011;74267;50.434;7.398;2024-02-21T11:58:47;6.00;;;3.22;;
84146;SDS011;74267;50.434;7.398;2024-02-21T12:01:13;10.63;;;4.13;;
84146;SDS011;74267;50.434;7.398;2024-02-21T12:03:39;11.90;;;3.80;;
84146;SDS011;74267;50.434;7.398;2024-02-21T12:06:06;7.57;;;2.95;;
84146;SDS011;74267;50.434;7.398;2024-02-21T12:08:42;8.55;;;3.67;;
84146;SDS011;74267;50.434;7.398;2024-02-21T12:14:01;11.18;;;6.10;;
84146;SDS011;74267;50.434;7.398;2024-02-21T12:16:28;9.02;;;3.22;;
84146;SDS011;74267;50.434;7.398;2024-02-21T12:18:58;10.93;;;4.60;;
84146;SDS011;74267;50.434;7.398;2024-02-21T12:21:24;7.88;;;3.50;;
84146;SDS011;74267;50.434;7.398;2024-02-21T12:23:58;8.85;;;4.72;;
84146;SDS011;74267;50.434;7.398;2024-02-21T12:26:23;5.70;;;2.85;;
84146;SDS011;74267;50.434;7.398;2024-02-21T12:28:49;11.00;;;4.90;;
84146;SDS011;74267;50.434;7.398;2024-02-21T12:31:14;5.13;;;3.08;;
84146;SDS011;74267;50.434;7.398;2024-02-21T12:33:41;12.68;;;6.93;;
84146;SDS011;74267;50.434;7.398;2024-02-21T12:36:07;7.85;;;2.83;;
84146;SDS011;74267;50.434;7.398;2024-02-21T12:38:33;7.75;;;3.13;;
84146;SDS011;74267;50.434;7.398;2024-02-21T12:40:59;7.47;;;3.17;;
84146;SDS011;74267;50.434;7.398;2024-02-21T12:43:25;6.55;;;3.20;;
84146;SDS011;74267;50.434;7.398;2024-02-21T12:45:51;11.43;;;3.63;;
84146;SDS011;74267;50.434;7.398;2024-02-21T12:48:16;7.65;;;3.08;;
84146;SDS011;74267;50.434;7.398;2024-02-21T12:50:43;9.35;;;4.15;;
84146;SDS011;74267;50.434;7.398;2024-02-21T12:53:14;8.57;;;4.90;;
84146;SDS011;74267;50.434;7.398;2024-02-21T12:55:40;9.05;;;6.07;;
84146;SDS011;74267;50.434;7.398;2024-02-21T12:58:06;8.05;;;3.20;;
84146;SDS011;74267;50.434;7.398;2024-02-21T13:00:32;5.85;;;2.85;;
84146;SDS011;74267;50.434;7.398;2024-02-21T13:02:57;6.90;;;3.58;;
84146;SDS011;74267;50.434;7.398;2024-02-21T13:05:23;10.20;;;3.05;;
84146;SDS011;74267;50.434;7.398;2024-02-21T13:07:48;7.97;;;3.13;;
84146;SDS011;74267;50.434;7.398;2024-02-21T13:10:14;8.23;;;3.92;;
84146;SDS011;74267;50.434;7.398;2024-02-21T13:12:39;7.85;;;5.07;;
84146;SDS011;74267;50.434;7.398;2024-02-21T13:15:04;7.20;;;4.85;;
84146;SDS011;74267;50.434;7.398;2024-02-21T13:17:30;9.27;;;2.85;;
84146;SDS011;74267;50.434;7.398;2024-02-21T13:19:56;8.30;;;2.85;;
84146;SDS011;74267;50.434;7.398;2024-02-21T13:22:22;5.47;;;3.15;;
84146;SDS011;74267;50.434;7.398;2024-02-21T13:24:50;7.95;;;3.17;;
84146;SDS011;74267;50.434;7.398;2024-02-21T13:27:16;10.75;;;3.17;;
84146;SDS011;74267;50.434;7.398;2024-02-21T13:29:41;8.23;;;6.82;;
84146;SDS011;74267;50.434;7.398;2024-02-21T13:32:06;7.43;;;2.95;;
84146;SDS011;74267;50.434;7.398;2024-02-21T13:34:32;9.65;;;2.58;;
84146;SDS011;74267;50.434;7.398;2024-02-21T13:36:57;5.25;;;2.38;;
84146;SDS011;74267;50.434;7.398;2024-02-21T13:39:24;5.80;;;3.75;;
84146;SDS011;74267;50.434;7.398;2024-02-21T13:41:49;7.43;;;2.75;;
84146;SDS011;74267;50.434;7.398;2024-02-21T13:44:15;5.63;;;2.75;;
84146;SDS011;74267;50.434;7.398;2024-02-21T13:46:40;7.22;;;2.78;;
84146;SDS011;74267;50.434;7.398;2024-02-21T13:49:06;8.52;;;2.97;;
84146;SDS011;74267;50.434;7.398;2024-02-21T13:51:32;6.53;;;2.20;;
84146;SDS011;74267;50.434;7.398;2024-02-21T13:54:01;5.82;;;2.67;;
84146;SDS011;74267;50.434;7.398;2024-02-21T13:56:28;7.28;;;3.00;;
84146;SDS011;74267;50.434;7.398;2024-02-21T13:58:53;6.45;;;2.85;;
84146;SDS011;74267;50.434;7.398;2024-02-21T14:01:18;7.60;;;2.75;;
84146;SDS011;74267;50.434;7.398;2024-02-21T14:03:44;8.05;;;5.22;;
84146;SDS011;74267;50.434;7.398;2024-02-21T14:06:09;9.90;;;5.47;;
84146;SDS011;74267;50.434;7.398;2024-02-21T14:08:34;6.85;;;5.70;;
84146;SDS011;74267;50.434;7.398;2024-02-21T14:11:01;7.18;;;3.45;;
84146;SDS011;74267;50.434;7.398;2024-02-21T14:13:26;6.95;;;2.47;;
84146;SDS011;74267;50.434;7.398;2024-02-21T14:15:51;5.53;;;2.90;;
84146;SDS011;74267;50.434;7.398;2024-02-21T14:18:16;5.57;;;2.35;;
84146;SDS011;74267;50.434;7.398;2024-02-21T14:20:42;6.15;;;2.60;;
84146;SDS011;74267;50.434;7.398;2024-02-21T14:23:08;6.45;;;2.60;;
84146;SDS011;74267;50.434;7.398;2024-02-21T14:25:33;4.13;;;2.70;;
84146;SDS011;74267;50.434;7.398;2024-02-21T14:27:58;4.22;;;2.28;;
84146;SDS011;74267;50.434;7.398;2024-02-21T14:30:25;6.70;;;3.22;;
84146;SDS011;74267;50.434;7.398;2024-02-21T14:32:51;5.15;;;2.28;;
84146;SDS011;74267;50.434;7.398;2024-02-21T14:35:16;6.55;;;2.13;;
84146;SDS011;74267;50.434;7.398;2024-02-21T14:37:42;7.50;;;5.47;;
84146;SDS011;74267;50.434;7.398;2024-02-21T14:40:07;9.90;;;5.55;;
84146;SDS011;74267;50.434;7.398;2024-02-21T14:42:33;5.68;;;2.20;;
84146;SDS011;74267;50.434;7.398;2024-02-21T14:44:59;5.07;;;2.28;;
84146;SDS011;74267;50.434;7.398;2024-02-21T14:47:29;6.50;;;2.47;;
84146;SDS011;74267;50.434;7.398;2024-02-21T14:49:55;5.95;;;2.47;;
84146;SDS011;74267;50.434;7.398;2024-02-21T14:52:21;5.95;;;2.45;;